F/v_l'omerta — FHXG — position and weather

sailwx.info

Track history (hours):
 
Tides and Currents Weather Stations Pressure Air Temp Water Temp Dewpoint Dewpoint Depression Visibility Wind Speed Wind Dir Waves Ship Positions

F/v_l'omerta

Last reported at 2014-Jul-23 03:33 UTC. Time now 2014-Jul-23 03:45 UTC.
Position N 46°22' W 001°46'.

Length 18 m.

Type: Fishing. MMSI: 227903000.

Date/timePositionNaut miles runAvg speedWind from/ knotsBaromVisibWave heightAir tempDewpointWater temp
2014-Jul-23 03:33N 46°22' W 001°46'3 2.6
2014-Jul-23 02:33N 46°20' W 001°43'3 3.4
2014-Jul-23 01:33N 46°17' W 001°44'3 3.4
2014-Jul-23 00:33N 46°14' W 001°42'3 3.0
2014-Jul-22 23:33N 46°16' W 001°44'3 3.4
2014-Jul-22 22:33N 46°20' W 001°45'2 2.5
2014-Jul-22 21:33N 46°22' W 001°45'2 1.6
2014-Jul-22 20:33N 46°21' W 001°44'2 2.1
2014-Jul-22 19:33N 46°22' W 001°46'4 3.8
2014-Jul-22 18:33N 46°22' W 001°41'1 0.8
2014-Jul-22 17:33N 46°21' W 001°40'1 1.1
2014-Jul-22 16:33N 46°22' W 001°41'3 3.5
2014-Jul-22 15:33N 46°21' W 001°36'3 2.5
2014-Jul-22 14:33N 46°21' W 001°39'1 1.4
2014-Jul-22 13:33N 46°22' W 001°41'3 3.4
2014-Jul-22 12:33N 46°21' W 001°36'2 2.4
2014-Jul-22 11:33N 46°22' W 001°39'1 1.1
2014-Jul-22 10:33N 46°22' W 001°38'2 1.7
2014-Jul-22 09:32N 46°21' W 001°35'4 4.2
2014-Jul-22 08:32N 46°22' W 001°41'3 3.4
2014-Jul-22 07:33N 46°22' W 001°36'2 1.8
2014-Jul-22 06:33N 46°21' W 001°39'3 2.8
2014-Jul-22 05:33N 46°21' W 001°43'3 3.2
2014-Jul-22 04:33N 46°19' W 001°47'3 3.2
2014-Jul-22 03:33N 46°18' W 001°51'3 2.7
2014-Jul-22 02:33N 46°16' W 001°54'3 3.4
2014-Jul-22 01:33N 46°13' W 001°52'  
2014-Jul-18 18:33N 46°30' W 001°47'0 0.0
2014-Jul-18 17:33N 46°30' W 001°47'0 0.0
2014-Jul-18 16:33N 46°30' W 001°47'0 0.0
2014-Jul-18 15:33N 46°30' W 001°47'0 0.0
2014-Jul-18 14:33N 46°30' W 001°47'0 0.0
2014-Jul-18 13:33N 46°30' W 001°47'0 0.0
2014-Jul-18 12:33N 46°30' W 001°47'0 0.0
2014-Jul-18 11:33N 46°30' W 001°47'0 0.0
2014-Jul-18 10:33N 46°30' W 001°47'0 0.0
2014-Jul-18 09:33N 46°30' W 001°47'0 0.0
2014-Jul-18 08:33N 46°30' W 001°47'0 0.0
2014-Jul-18 07:33N 46°30' W 001°47'0 0.0
2014-Jul-18 06:33N 46°30' W 001°47'0 0.0
2014-Jul-18 05:33N 46°30' W 001°47'0 0.0
2014-Jul-18 04:33N 46°30' W 001°47'0 0.0
2014-Jul-18 03:33N 46°30' W 001°47'0 0.0
2014-Jul-18 02:33N 46°30' W 001°47'0 0.0
2014-Jul-18 01:33N 46°30' W 001°47'0 0.0
2014-Jul-18 00:33N 46°30' W 001°47'0 0.0
2014-Jul-17 23:33N 46°30' W 001°47'0 0.0
2014-Jul-17 22:33N 46°30' W 001°47'0 0.0
2014-Jul-17 21:33N 46°30' W 001°47'0 0.0
2014-Jul-17 20:33N 46°30' W 001°47'0 0.0
2014-Jul-17 19:33N 46°30' W 001°47'0 0.0
2014-Jul-17 18:33N 46°30' W 001°47'0 0.0
2014-Jul-17 17:33N 46°30' W 001°47'0 0.0
2014-Jul-17 16:33N 46°30' W 001°47'0 0.0
2014-Jul-17 15:33N 46°30' W 001°47'0 0.0
2014-Jul-17 14:33N 46°30' W 001°47'0 0.0
2014-Jul-17 13:33N 46°30' W 001°47'0 0.0
2014-Jul-17 12:34N 46°30' W 001°47'0 0.0
2014-Jul-17 11:33N 46°30' W 001°47'0 0.0
2014-Jul-17 10:34N 46°30' W 001°47'0 0.0
2014-Jul-17 09:33N 46°30' W 001°47'0 0.0
2014-Jul-17 08:34N 46°30' W 001°47'0 0.0
2014-Jul-17 07:34N 46°30' W 001°47'0 0.0
2014-Jul-17 06:33N 46°30' W 001°47'0 0.0
2014-Jul-17 05:33N 46°30' W 001°47'0 0.0
2014-Jul-17 04:34N 46°30' W 001°47'0 0.0
2014-Jul-17 03:33N 46°30' W 001°47'0 0.0
2014-Jul-17 02:34N 46°30' W 001°47'0 0.0
2014-Jul-17 01:34N 46°30' W 001°47'0 0.0
2014-Jul-17 00:34N 46°30' W 001°47'0 0.0
2014-Jul-16 23:34N 46°30' W 001°47'0 0.0
2014-Jul-16 22:34N 46°30' W 001°47'0 0.0
2014-Jul-16 21:34N 46°30' W 001°47'0 0.0
2014-Jul-16 20:34N 46°30' W 001°47'0 0.0
2014-Jul-16 19:34N 46°30' W 001°47'0 0.0
2014-Jul-16 18:34N 46°30' W 001°47'0 0.0
2014-Jul-16 17:34N 46°30' W 001°47'0 0.0
2014-Jul-16 16:33N 46°30' W 001°47'0 0.0
2014-Jul-16 15:34N 46°30' W 001°47'0 0.0
2014-Jul-16 14:33N 46°30' W 001°47'0 0.0
2014-Jul-16 13:33N 46°30' W 001°47'0 0.0
2014-Jul-16 12:34N 46°30' W 001°47'0 0.0
2014-Jul-16 11:34N 46°30' W 001°47'0 0.0
2014-Jul-16 10:34N 46°30' W 001°47'0 0.0
2014-Jul-16 09:33N 46°30' W 001°47'0 0.0
2014-Jul-16 08:34N 46°30' W 001°47'0 0.0
2014-Jul-16 07:33N 46°30' W 001°47'0 0.0
2014-Jul-16 06:34N 46°30' W 001°47'0 0.0
2014-Jul-16 05:34N 46°30' W 001°47'0 0.0
2014-Jul-16 04:34N 46°30' W 001°47'0 0.0
2014-Jul-16 03:34N 46°30' W 001°47'0 0.0
2014-Jul-16 02:34N 46°30' W 001°47'0 0.0
2014-Jul-16 01:34N 46°30' W 001°47'0 0.0
2014-Jul-16 00:33N 46°30' W 001°47'0 0.0
2014-Jul-15 23:33N 46°30' W 001°47'0 0.0
2014-Jul-15 22:34N 46°30' W 001°47'0 0.0
2014-Jul-15 21:34N 46°30' W 001°47'0 0.0
2014-Jul-15 20:34N 46°30' W 001°47'0 0.0
2014-Jul-15 19:33N 46°30' W 001°47'0 0.0
2014-Jul-15 18:34N 46°30' W 001°47'0 0.0
2014-Jul-15 17:34N 46°30' W 001°47'0 0.0
2014-Jul-15 16:33N 46°30' W 001°47'0 0.0
2014-Jul-15 15:34N 46°30' W 001°47'0 0.0
2014-Jul-15 14:33N 46°30' W 001°47'0 0.0
2014-Jul-15 13:34N 46°30' W 001°47'0 0.0
2014-Jul-15 12:34N 46°30' W 001°47'0 0.0
2014-Jul-15 11:33N 46°30' W 001°47'0 0.0
2014-Jul-15 10:33N 46°30' W 001°47'0 0.0
2014-Jul-15 09:34N 46°30' W 001°47'0 0.0
2014-Jul-15 08:34N 46°30' W 001°47'0 0.0
2014-Jul-15 07:34N 46°30' W 001°47'0 0.0
2014-Jul-15 06:33N 46°30' W 001°47'0 0.0
2014-Jul-13 20:34N 46°30' W 001°47'0 0.0
2014-Jul-13 19:34N 46°30' W 001°47'0 0.0
2014-Jul-13 18:33N 46°30' W 001°47'0 0.0
2014-Jul-13 17:33N 46°30' W 001°47'0 0.1
2014-Jul-13 16:34N 46°30' W 001°47'1 0.7
2014-Jul-13 15:34N 46°29' W 001°47'8 7.8
2014-Jul-13 14:34N 46°23' W 001°41'3 2.6
2014-Jul-13 13:34N 46°21' W 001°44'2 1.9
2014-Jul-13 12:33N 46°22' W 001°45'3 2.7
2014-Jul-13 11:34N 46°22' W 001°41'3 2.7
2014-Jul-13 10:34N 46°21' W 001°38'2 2.2
2014-Jul-13 09:33N 46°21' W 001°35'3 2.8
2014-Jul-13 08:34N 46°22' W 001°38'2 2.1
2014-Jul-13 07:34N 46°22' W 001°41'4 4.0
2014-Jul-13 06:33N 46°21' W 001°36'0 0.0
2014-Jul-13 05:33N 46°21' W 001°36'3 3.3
2014-Jul-13 04:33N 46°21' W 001°40'4 3.6
2014-Jul-13 03:34N 46°20' W 001°45'  
Track history (hours):
 
Tides and Currents Weather Stations Pressure Air Temp Water Temp Dewpoint Dewpoint Depression Visibility Wind Speed Wind Dir Waves Ship Positions

F/v_l'omerta

Last reported at 2014-Jul-23 03:33 UTC. Time now 2014-Jul-23 03:45 UTC.
Position N 46°22' W 001°46'.

Length 18 m.

Type: Fishing. MMSI: 227903000.

Date/timePositionNaut miles runAvg speedWind from/ knotsBaromVisibWave heightAir tempDewpointWater temp
2014-Jul-23 03:33N 46°22' W 001°46'3 2.6
2014-Jul-23 02:33N 46°20' W 001°43'3 3.4
2014-Jul-23 01:33N 46°17' W 001°44'3 3.4
2014-Jul-23 00:33N 46°14' W 001°42'3 3.0
2014-Jul-22 23:33N 46°16' W 001°44'3 3.4
2014-Jul-22 22:33N 46°20' W 001°45'2 2.5
2014-Jul-22 21:33N 46°22' W 001°45'2 1.6
2014-Jul-22 20:33N 46°21' W 001°44'2 2.1
2014-Jul-22 19:33N 46°22' W 001°46'4 3.8
2014-Jul-22 18:33N 46°22' W 001°41'1 0.8
2014-Jul-22 17:33N 46°21' W 001°40'1 1.1
2014-Jul-22 16:33N 46°22' W 001°41'3 3.5
2014-Jul-22 15:33N 46°21' W 001°36'3 2.5
2014-Jul-22 14:33N 46°21' W 001°39'1 1.4
2014-Jul-22 13:33N 46°22' W 001°41'3 3.4
2014-Jul-22 12:33N 46°21' W 001°36'2 2.4
2014-Jul-22 11:33N 46°22' W 001°39'1 1.1
2014-Jul-22 10:33N 46°22' W 001°38'2 1.7
2014-Jul-22 09:32N 46°21' W 001°35'4 4.2
2014-Jul-22 08:32N 46°22' W 001°41'3 3.4
2014-Jul-22 07:33N 46°22' W 001°36'2 1.8
2014-Jul-22 06:33N 46°21' W 001°39'3 2.8
2014-Jul-22 05:33N 46°21' W 001°43'3 3.2
2014-Jul-22 04:33N 46°19' W 001°47'3 3.2
2014-Jul-22 03:33N 46°18' W 001°51'3 2.7
2014-Jul-22 02:33N 46°16' W 001°54'3 3.4
2014-Jul-22 01:33N 46°13' W 001°52'  
2014-Jul-18 18:33N 46°30' W 001°47'0 0.0
2014-Jul-18 17:33N 46°30' W 001°47'0 0.0
2014-Jul-18 16:33N 46°30' W 001°47'0 0.0
2014-Jul-18 15:33N 46°30' W 001°47'0 0.0
2014-Jul-18 14:33N 46°30' W 001°47'0 0.0
2014-Jul-18 13:33N 46°30' W 001°47'0 0.0
2014-Jul-18 12:33N 46°30' W 001°47'0 0.0
2014-Jul-18 11:33N 46°30' W 001°47'0 0.0
2014-Jul-18 10:33N 46°30' W 001°47'0 0.0
2014-Jul-18 09:33N 46°30' W 001°47'0 0.0
2014-Jul-18 08:33N 46°30' W 001°47'0 0.0
2014-Jul-18 07:33N 46°30' W 001°47'0 0.0
2014-Jul-18 06:33N 46°30' W 001°47'0 0.0
2014-Jul-18 05:33N 46°30' W 001°47'0 0.0
2014-Jul-18 04:33N 46°30' W 001°47'0 0.0
2014-Jul-18 03:33N 46°30' W 001°47'0 0.0
2014-Jul-18 02:33N 46°30' W 001°47'0 0.0
2014-Jul-18 01:33N 46°30' W 001°47'0 0.0
2014-Jul-18 00:33N 46°30' W 001°47'0 0.0
2014-Jul-17 23:33N 46°30' W 001°47'0 0.0
2014-Jul-17 22:33N 46°30' W 001°47'0 0.0
2014-Jul-17 21:33N 46°30' W 001°47'0 0.0
2014-Jul-17 20:33N 46°30' W 001°47'0 0.0
2014-Jul-17 19:33N 46°30' W 001°47'0 0.0
2014-Jul-17 18:33N 46°30' W 001°47'0 0.0
2014-Jul-17 17:33N 46°30' W 001°47'0 0.0
2014-Jul-17 16:33N 46°30' W 001°47'0 0.0
2014-Jul-17 15:33N 46°30' W 001°47'0 0.0
2014-Jul-17 14:33N 46°30' W 001°47'0 0.0
2014-Jul-17 13:33N 46°30' W 001°47'0 0.0
2014-Jul-17 12:34N 46°30' W 001°47'0 0.0
2014-Jul-17 11:33N 46°30' W 001°47'0 0.0
2014-Jul-17 10:34N 46°30' W 001°47'0 0.0
2014-Jul-17 09:33N 46°30' W 001°47'0 0.0
2014-Jul-17 08:34N 46°30' W 001°47'0 0.0
2014-Jul-17 07:34N 46°30' W 001°47'0 0.0
2014-Jul-17 06:33N 46°30' W 001°47'0 0.0
2014-Jul-17 05:33N 46°30' W 001°47'0 0.0
2014-Jul-17 04:34N 46°30' W 001°47'0 0.0
2014-Jul-17 03:33N 46°30' W 001°47'0 0.0
2014-Jul-17 02:34N 46°30' W 001°47'0 0.0
2014-Jul-17 01:34N 46°30' W 001°47'0 0.0
2014-Jul-17 00:34N 46°30' W 001°47'0 0.0
2014-Jul-16 23:34N 46°30' W 001°47'0 0.0
2014-Jul-16 22:34N 46°30' W 001°47'0 0.0
2014-Jul-16 21:34N 46°30' W 001°47'0 0.0
2014-Jul-16 20:34N 46°30' W 001°47'0 0.0
2014-Jul-16 19:34N 46°30' W 001°47'0 0.0
2014-Jul-16 18:34N 46°30' W 001°47'0 0.0
2014-Jul-16 17:34N 46°30' W 001°47'0 0.0
2014-Jul-16 16:33N 46°30' W 001°47'0 0.0
2014-Jul-16 15:34N 46°30' W 001°47'0 0.0
2014-Jul-16 14:33N 46°30' W 001°47'0 0.0
2014-Jul-16 13:33N 46°30' W 001°47'0 0.0
2014-Jul-16 12:34N 46°30' W 001°47'0 0.0
2014-Jul-16 11:34N 46°30' W 001°47'0 0.0
2014-Jul-16 10:34N 46°30' W 001°47'0 0.0
2014-Jul-16 09:33N 46°30' W 001°47'0 0.0
2014-Jul-16 08:34N 46°30' W 001°47'0 0.0
2014-Jul-16 07:33N 46°30' W 001°47'0 0.0
2014-Jul-16 06:34N 46°30' W 001°47'0 0.0
2014-Jul-16 05:34N 46°30' W 001°47'0 0.0
2014-Jul-16 04:34N 46°30' W 001°47'0 0.0
2014-Jul-16 03:34N 46°30' W 001°47'0 0.0
2014-Jul-16 02:34N 46°30' W 001°47'0 0.0
2014-Jul-16 01:34N 46°30' W 001°47'0 0.0
2014-Jul-16 00:33N 46°30' W 001°47'0 0.0
2014-Jul-15 23:33N 46°30' W 001°47'0 0.0
2014-Jul-15 22:34N 46°30' W 001°47'0 0.0
2014-Jul-15 21:34N 46°30' W 001°47'0 0.0
2014-Jul-15 20:34N 46°30' W 001°47'0 0.0
2014-Jul-15 19:33N 46°30' W 001°47'0 0.0
2014-Jul-15 18:34N 46°30' W 001°47'0 0.0
2014-Jul-15 17:34N 46°30' W 001°47'0 0.0
2014-Jul-15 16:33N 46°30' W 001°47'0 0.0
2014-Jul-15 15:34N 46°30' W 001°47'0 0.0
2014-Jul-15 14:33N 46°30' W 001°47'0 0.0
2014-Jul-15 13:34N 46°30' W 001°47'0 0.0
2014-Jul-15 12:34N 46°30' W 001°47'0 0.0
2014-Jul-15 11:33N 46°30' W 001°47'0 0.0
2014-Jul-15 10:33N 46°30' W 001°47'0 0.0
2014-Jul-15 09:34N 46°30' W 001°47'0 0.0
2014-Jul-15 08:34N 46°30' W 001°47'0 0.0
2014-Jul-15 07:34N 46°30' W 001°47'0 0.0
2014-Jul-15 06:33N 46°30' W 001°47'0 0.0
2014-Jul-13 20:34N 46°30' W 001°47'0 0.0
2014-Jul-13 19:34N 46°30' W 001°47'0 0.0
2014-Jul-13 18:33N 46°30' W 001°47'0 0.0
2014-Jul-13 17:33N 46°30' W 001°47'0 0.1
2014-Jul-13 16:34N 46°30' W 001°47'1 0.7
2014-Jul-13 15:34N 46°29' W 001°47'8 7.8
2014-Jul-13 14:34N 46°23' W 001°41'3 2.6
2014-Jul-13 13:34N 46°21' W 001°44'2 1.9
2014-Jul-13 12:33N 46°22' W 001°45'3 2.7
2014-Jul-13 11:34N 46°22' W 001°41'3 2.7
2014-Jul-13 10:34N 46°21' W 001°38'2 2.2
2014-Jul-13 09:33N 46°21' W 001°35'3 2.8
2014-Jul-13 08:34N 46°22' W 001°38'2 2.1
2014-Jul-13 07:34N 46°22' W 001°41'4 4.0
2014-Jul-13 06:33N 46°21' W 001°36'0 0.0
2014-Jul-13 05:33N 46°21' W 001°36'3 3.3
2014-Jul-13 04:33N 46°21' W 001°40'4 3.6
2014-Jul-13 03:34N 46°20' W 001°45'  

Dump ship's entire track history